createdAt,value
2023-01-29T00:01:49.851Z,5.61
2023-01-29T00:04:16.685Z,5.59
2023-01-29T00:06:43.841Z,5.61
2023-01-29T00:09:11.645Z,5.61
2023-01-29T00:11:38.360Z,5.60
2023-01-29T00:14:05.414Z,5.60
2023-01-29T00:16:32.119Z,5.59
2023-01-29T00:18:58.851Z,5.57
2023-01-29T00:21:25.531Z,5.57
2023-01-29T00:23:55.096Z,5.58
2023-01-29T00:26:21.851Z,5.57
2023-01-29T00:28:51.592Z,5.56
2023-01-29T00:31:21.897Z,5.56
2023-01-29T00:33:49.364Z,5.56
2023-01-29T00:36:18.908Z,5.57
2023-01-29T00:38:54.413Z,5.57
2023-01-29T00:41:41.812Z,5.58
2023-01-29T00:44:27.153Z,5.57
2023-01-29T00:46:54.587Z,5.57
2023-01-29T00:49:21.425Z,5.57
2023-01-29T00:52:06.453Z,5.55
2023-01-29T00:54:33.317Z,5.56
2023-01-29T00:57:00.719Z,5.57
2023-01-29T00:59:27.442Z,5.57
2023-01-29T01:02:12.835Z,5.58
2023-01-29T01:04:39.569Z,5.58
2023-01-29T01:07:06.574Z,5.57
2023-01-29T01:09:54.857Z,5.57
2023-01-29T01:12:21.763Z,5.55
2023-01-29T01:14:48.520Z,5.55
2023-01-29T01:17:15.512Z,5.54
2023-01-29T01:19:42.309Z,5.54
2023-01-29T01:22:09.007Z,5.54
2023-01-29T01:24:35.820Z,5.55
2023-01-29T01:27:02.563Z,5.56
2023-01-29T01:29:29.351Z,5.57
2023-01-29T01:31:56.186Z,5.57
2023-01-29T01:34:23.808Z,5.59
2023-01-29T01:36:50.531Z,5.59
2023-01-29T01:39:17.285Z,5.60
2023-01-29T01:41:44.070Z,5.60
2023-01-29T01:44:48.267Z,5.59
2023-01-29T01:47:15.943Z,5.58
2023-01-29T01:49:43.649Z,5.59
2023-01-29T01:52:11.966Z,5.59
2023-01-29T01:54:39.144Z,5.58
2023-01-29T01:57:16.797Z,5.57
2023-01-29T01:59:50.033Z,5.55
2023-01-29T02:02:36.499Z,5.54
2023-01-29T02:05:22.022Z,5.52
2023-01-29T02:08:08.373Z,5.52
2023-01-29T02:10:38.362Z,5.49
2023-01-29T02:13:06.304Z,5.51
2023-01-29T02:15:33.500Z,5.47
2023-01-29T02:18:02.346Z,5.45
2023-01-29T02:20:33.379Z,5.43
2023-01-29T02:23:27.108Z,5.40
2023-01-29T02:26:04.513Z,5.39
2023-01-29T02:28:39.509Z,5.38
2023-01-29T02:31:32.785Z,5.38
2023-01-29T02:34:25.956Z,5.38
2023-01-29T02:37:06.079Z,5.35
2023-01-29T02:39:53.128Z,5.34
2023-01-29T02:42:27.316Z,5.30
2023-01-29T02:45:24.895Z,5.27
2023-01-29T02:48:00.796Z,5.23
2023-01-29T02:50:49.154Z,5.21
2023-01-29T02:53:18.396Z,5.21
2023-01-29T02:55:52.979Z,5.20
2023-01-29T02:58:29.852Z,5.20
2023-01-29T03:01:00.778Z,5.17
2023-01-29T03:03:32.737Z,5.16
2023-01-29T03:05:59.709Z,5.13
2023-01-29T03:08:37.338Z,5.12
2023-01-29T03:11:06.392Z,5.13
2023-01-29T03:13:40.813Z,5.13
2023-01-29T03:16:14.362Z,5.12
2023-01-29T03:18:50.950Z,5.09
2023-01-29T03:21:40.801Z,5.05
2023-01-29T03:24:29.980Z,5.01
2023-01-29T03:27:19.743Z,4.99
2023-01-29T03:30:06.442Z,4.99
2023-01-29T03:32:56.399Z,4.99
2023-01-29T03:35:39.394Z,4.99
2023-01-29T03:38:11.595Z,5.02
2023-01-29T03:41:19.430Z,5.04
2023-01-29T03:44:10.558Z,5.06
2023-01-29T03:46:54.420Z,5.07
2023-01-29T03:49:59.062Z,5.07
2023-01-29T03:52:40.390Z,5.08
2023-01-29T03:55:11.409Z,5.09
2023-01-29T03:57:47.389Z,5.11
2023-01-29T04:00:23.651Z,5.12
2023-01-29T04:03:19.555Z,5.14
2023-01-29T04:05:58.445Z,5.14
2023-01-29T04:08:32.585Z,5.14
2023-01-29T04:11:04.595Z,5.14
2023-01-29T04:13:33.731Z,5.14
2023-01-29T04:16:02.089Z,5.13
2023-01-29T04:18:49.705Z,5.12
2023-01-29T04:21:22.682Z,5.13
2023-01-29T04:23:49.430Z,5.12
2023-01-29T04:26:27.216Z,5.13
2023-01-29T04:29:09.744Z,5.13
2023-01-29T04:32:02.291Z,5.12
2023-01-29T04:34:36.209Z,5.12
2023-01-29T04:37:41.789Z,5.11
2023-01-29T04:40:23.483Z,5.09
2023-01-29T04:42:56.209Z,5.07
2023-01-29T04:46:00.183Z,5.07
2023-01-29T04:48:30.546Z,5.03
2023-01-29T04:51:35.709Z,5.01
2023-01-29T04:54:10.869Z,5.01
2023-01-29T04:56:55.207Z,5.01
2023-01-29T04:59:28.839Z,5.03
2023-01-29T05:01:55.645Z,5.06
2023-01-29T05:04:23.235Z,5.07
2023-01-29T05:06:50.318Z,5.08
2023-01-29T05:09:17.522Z,5.09
2023-01-29T05:11:45.530Z,5.07
2023-01-29T05:14:14.501Z,5.05
2023-01-29T05:16:47.723Z,5.06
2023-01-29T05:19:16.030Z,5.06
2023-01-29T05:21:45.526Z,5.06
2023-01-29T05:24:14.531Z,5.07
2023-01-29T05:27:01.679Z,5.05
2023-01-29T05:29:28.364Z,4.99
2023-01-29T05:31:55.192Z,4.96
2023-01-29T05:34:21.977Z,4.91
2023-01-29T05:36:48.682Z,4.87
2023-01-29T05:39:15.442Z,4.83
2023-01-29T05:41:42.476Z,4.81
2023-01-29T05:44:12.174Z,4.79
2023-01-29T05:46:39.081Z,4.79
2023-01-29T05:49:06.206Z,4.79
2023-01-29T05:51:32.890Z,4.79
2023-01-29T05:53:59.596Z,4.81
2023-01-29T05:56:26.346Z,4.83
2023-01-29T05:58:53.034Z,4.84
2023-01-29T06:01:24.893Z,4.85
2023-01-29T06:03:51.856Z,4.87
2023-01-29T06:06:18.538Z,4.86
2023-01-29T06:08:45.258Z,4.87
2023-01-29T06:11:13.211Z,4.86
2023-01-29T06:13:40.445Z,4.88
2023-01-29T06:16:08.393Z,4.89
2023-01-29T06:18:36.242Z,4.90
2023-01-29T06:21:04.201Z,4.90
2023-01-29T06:23:30.936Z,4.87
2023-01-29T06:26:01.836Z,4.84
2023-01-29T06:28:28.553Z,4.80
2023-01-29T06:31:01.299Z,4.76
2023-01-29T06:33:32.280Z,4.73
2023-01-29T06:36:00.677Z,4.70
2023-01-29T06:38:28.143Z,4.71
2023-01-29T06:40:55.465Z,4.71
2023-01-29T06:43:23.330Z,4.74
2023-01-29T06:45:54.566Z,4.77
2023-01-29T06:48:22.220Z,4.81
2023-01-29T06:50:53.812Z,4.83
2023-01-29T06:53:20.959Z,4.86
2023-01-29T06:55:53.853Z,4.89
2023-01-29T06:58:20.758Z,4.89
2023-01-29T07:00:47.568Z,4.88
2023-01-29T07:03:14.384Z,4.84
2023-01-29T07:05:41.077Z,4.82
2023-01-29T07:08:09.417Z,4.80
2023-01-29T07:10:36.477Z,4.78
2023-01-29T07:13:03.203Z,4.78
2023-01-29T07:15:29.913Z,4.80
2023-01-29T07:18:00.518Z,4.82
2023-01-29T07:20:28.599Z,4.84
2023-01-29T07:22:56.675Z,4.86
2023-01-29T07:25:23.939Z,4.90
2023-01-29T07:27:50.677Z,4.91
2023-01-29T07:30:17.931Z,4.94
2023-01-29T07:32:44.912Z,4.96
2023-01-29T07:35:11.610Z,4.97
2023-01-29T07:37:38.343Z,4.99
2023-01-29T07:40:10.367Z,5.02
2023-01-29T07:42:39.248Z,5.04
2023-01-29T07:45:06.950Z,5.06
2023-01-29T07:47:33.673Z,5.08
2023-01-29T07:50:00.414Z,5.08
2023-01-29T07:52:29.574Z,5.09
2023-01-29T07:54:56.297Z,5.11
2023-01-29T07:57:23.302Z,5.14
2023-01-29T07:59:50.014Z,5.15
2023-01-29T08:02:16.897Z,5.15
2023-01-29T08:04:43.663Z,5.14
2023-01-29T08:07:10.396Z,5.15
2023-01-29T08:09:37.132Z,5.17
2023-01-29T08:12:04.293Z,5.17
2023-01-29T08:14:31.061Z,5.19
2023-01-29T08:16:57.817Z,5.20
2023-01-29T08:19:24.573Z,5.18
2023-01-29T08:21:51.295Z,5.17
2023-01-29T08:24:18.119Z,5.12
2023-01-29T08:26:44.873Z,5.10
2023-01-29T08:29:12.209Z,5.09
2023-01-29T08:31:38.963Z,5.11
2023-01-29T08:34:05.692Z,5.12
2023-01-29T08:36:32.401Z,5.15
2023-01-29T08:38:59.151Z,5.16
2023-01-29T08:41:25.888Z,5.18
2023-01-29T08:43:52.621Z,5.21
2023-01-29T08:46:19.875Z,5.23
2023-01-29T08:48:46.727Z,5.28
2023-01-29T08:51:13.682Z,5.31
2023-01-29T08:53:40.418Z,5.33
2023-01-29T08:56:07.310Z,5.37
2023-01-29T08:58:34.085Z,5.38
2023-01-29T09:01:11.512Z,5.43
2023-01-29T09:03:40.947Z,5.46
2023-01-29T09:06:10.005Z,5.49
2023-01-29T09:08:36.722Z,5.53
2023-01-29T09:11:03.688Z,5.56
2023-01-29T09:13:30.633Z,5.58
2023-01-29T09:16:01.523Z,5.62
2023-01-29T09:18:29.138Z,5.62
2023-01-29T09:20:56.515Z,5.61
2023-01-29T09:23:23.251Z,5.59
2023-01-29T09:25:50.028Z,5.59
2023-01-29T09:28:19.341Z,5.61
2023-01-29T09:30:46.673Z,5.63
2023-01-29T09:33:13.418Z,5.62
2023-01-29T09:35:41.414Z,5.61
2023-01-29T09:38:11.651Z,5.62
2023-01-29T09:40:48.644Z,5.66
2023-01-29T09:43:24.491Z,5.72
2023-01-29T09:46:15.019Z,5.78
2023-01-29T09:48:42.164Z,5.84
2023-01-29T09:51:19.831Z,5.87
2023-01-29T09:53:51.794Z,5.89
2023-01-29T09:56:20.511Z,5.91
2023-01-29T09:58:47.756Z,5.94
2023-01-29T10:01:38.460Z,5.99
2023-01-29T10:04:23.481Z,6.03
2023-01-29T10:07:22.561Z,6.07
2023-01-29T10:09:58.824Z,6.11
2023-01-29T10:12:38.609Z,6.19
2023-01-29T10:15:14.795Z,6.26
2023-01-29T10:17:57.473Z,6.35
2023-01-29T10:20:43.280Z,6.47
2023-01-29T10:23:27.112Z,6.61
2023-01-29T10:25:54.205Z,6.71
2023-01-29T10:28:29.284Z,6.80
2023-01-29T10:31:24.937Z,6.90
2023-01-29T10:34:01.915Z,6.95
2023-01-29T10:36:46.697Z,6.96
2023-01-29T10:39:20.523Z,6.94
2023-01-29T10:41:58.620Z,6.92
2023-01-29T10:44:44.263Z,6.91
2023-01-29T10:47:52.853Z,6.92
2023-01-29T10:50:51.732Z,6.91
2023-01-29T10:53:21.338Z,6.90
2023-01-29T10:56:20.901Z,6.92
2023-01-29T10:58:52.087Z,6.93
2023-01-29T11:01:18.807Z,6.94
2023-01-29T11:03:45.534Z,6.98
2023-01-29T11:06:19.631Z,7.01
2023-01-29T11:08:54.143Z,7.02
2023-01-29T11:11:22.641Z,7.06
2023-01-29T11:14:05.080Z,7.08
2023-01-29T11:16:33.357Z,7.07
2023-01-29T11:19:01.137Z,7.05
2023-01-29T11:21:28.994Z,7.01
2023-01-29T11:24:06.511Z,6.97
2023-01-29T11:26:37.240Z,6.95
2023-01-29T11:29:03.956Z,6.91
2023-01-29T11:31:37.944Z,6.87
2023-01-29T11:34:19.375Z,6.81
2023-01-29T11:36:46.753Z,6.76
2023-01-29T11:39:21.745Z,6.71
2023-01-29T11:41:59.195Z,6.69
2023-01-29T11:44:34.502Z,6.67
2023-01-29T11:47:16.493Z,6.64
2023-01-29T11:49:48.961Z,6.60
2023-01-29T11:52:17.552Z,6.60
2023-01-29T11:54:52.019Z,6.60
2023-01-29T11:57:30.617Z,6.62
2023-01-29T12:00:18.108Z,6.65
2023-01-29T12:02:53.180Z,6.67
2023-01-29T12:05:23.157Z,6.67
2023-01-29T12:07:53.156Z,6.69
2023-01-29T12:10:36.131Z,6.72
2023-01-29T12:13:05.744Z,6.76
2023-01-29T12:15:32.461Z,6.79
2023-01-29T12:18:26.002Z,6.82
2023-01-29T12:20:59.988Z,6.81
2023-01-29T12:23:39.231Z,6.79
2023-01-29T12:26:13.606Z,6.76
2023-01-29T12:29:08.143Z,6.78
2023-01-29T12:31:42.275Z,6.89
2023-01-29T12:34:34.176Z,7.08
2023-01-29T12:37:22.895Z,7.19
2023-01-29T12:39:51.661Z,7.26
2023-01-29T12:42:22.966Z,7.31
2023-01-29T12:44:56.708Z,7.35
2023-01-29T12:47:33.658Z,7.35
2023-01-29T12:50:05.215Z,7.34
2023-01-29T12:52:39.193Z,7.33
2023-01-29T12:55:21.163Z,7.31
2023-01-29T12:57:58.926Z,7.28
2023-01-29T13:00:28.318Z,7.32
2023-01-29T13:03:08.383Z,7.57
2023-01-29T13:05:47.563Z,7.77
2023-01-29T13:08:25.706Z,7.77
2023-01-29T13:10:53.968Z,7.72
2023-01-29T13:13:42.862Z,7.68
2023-01-29T13:16:12.847Z,7.62
2023-01-29T13:18:57.669Z,7.56
2023-01-29T13:21:31.862Z,7.51
2023-01-29T13:24:02.772Z,7.46
2023-01-29T13:26:30.744Z,7.41
2023-01-29T13:28:57.974Z,7.37
2023-01-29T13:31:31.365Z,7.32
2023-01-29T13:34:22.161Z,7.27
2023-01-29T13:36:54.803Z,7.24
2023-01-29T13:39:28.925Z,7.22
2023-01-29T13:41:57.381Z,7.16
2023-01-29T13:44:26.979Z,7.10
2023-01-29T13:46:59.634Z,7.06
2023-01-29T13:49:47.247Z,7.02
2023-01-29T13:52:33.917Z,6.98
2023-01-29T13:55:05.683Z,6.92
2023-01-29T13:57:43.440Z,6.88
2023-01-29T14:00:33.452Z,6.85
2023-01-29T14:03:00.096Z,6.87
2023-01-29T14:05:29.521Z,6.93
2023-01-29T14:08:06.926Z,6.93
2023-01-29T14:10:35.115Z,6.94
2023-01-29T14:13:04.718Z,6.94
2023-01-29T14:15:33.696Z,6.98
2023-01-29T14:18:14.280Z,7.03
2023-01-29T14:20:51.368Z,7.09
2023-01-29T14:23:35.913Z,7.14
2023-01-29T14:26:05.026Z,7.15
2023-01-29T14:28:33.656Z,7.18
2023-01-29T14:31:00.603Z,7.21
2023-01-29T14:33:28.443Z,7.24
2023-01-29T14:35:57.060Z,7.26
2023-01-29T14:38:26.498Z,7.27
2023-01-29T14:41:03.691Z,7.29
2023-01-29T14:43:30.422Z,7.28
2023-01-29T14:46:32.218Z,7.29
2023-01-29T14:48:59.034Z,7.29
2023-01-29T14:51:26.987Z,7.32
2023-01-29T14:54:03.938Z,7.33
2023-01-29T14:56:40.910Z,7.32
2023-01-29T14:59:30.554Z,7.30
2023-01-29T15:02:00.715Z,7.29
2023-01-29T15:04:38.000Z,7.30
2023-01-29T15:07:11.767Z,7.30
2023-01-29T15:09:44.425Z,7.28
2023-01-29T15:12:42.218Z,7.28
2023-01-29T15:15:27.355Z,7.25
2023-01-29T15:18:16.219Z,7.18
2023-01-29T15:20:43.541Z,7.15
2023-01-29T15:23:29.167Z,7.12
2023-01-29T15:26:04.361Z,7.10
2023-01-29T15:28:32.511Z,7.07
2023-01-29T15:31:01.956Z,7.04
2023-01-29T15:33:28.881Z,6.99
2023-01-29T15:36:08.592Z,6.94
2023-01-29T15:38:35.623Z,6.89
2023-01-29T15:41:14.432Z,6.84
2023-01-29T15:43:46.712Z,6.78
2023-01-29T15:46:28.303Z,6.71
2023-01-29T15:48:56.281Z,6.67
2023-01-29T15:51:25.430Z,6.61
2023-01-29T15:53:55.142Z,6.55
2023-01-29T15:56:29.414Z,6.51
2023-01-29T15:58:58.066Z,6.45
2023-01-29T16:01:28.909Z,6.42
2023-01-29T16:03:59.371Z,6.39
2023-01-29T16:06:26.765Z,6.34
2023-01-29T16:08:54.392Z,6.34
2023-01-29T16:11:21.718Z,6.32
2023-01-29T16:13:50.095Z,6.31
2023-01-29T16:16:21.068Z,6.28
2023-01-29T16:18:59.576Z,6.26
2023-01-29T16:21:38.243Z,6.23
2023-01-29T16:24:09.699Z,6.21
2023-01-29T16:26:38.509Z,6.21
2023-01-29T16:29:11.437Z,6.19
2023-01-29T16:31:38.810Z,6.19
2023-01-29T16:34:07.542Z,6.17
2023-01-29T16:36:34.235Z,6.12
2023-01-29T16:39:05.168Z,6.08
2023-01-29T16:41:36.140Z,6.03
2023-01-29T16:44:13.289Z,5.96
2023-01-29T16:46:47.705Z,5.89
2023-01-29T16:49:26.779Z,5.81
2023-01-29T16:51:54.460Z,5.73
2023-01-29T16:54:24.370Z,5.67
2023-01-29T16:56:56.046Z,5.61
2023-01-29T16:59:32.391Z,5.56
2023-01-29T17:01:59.348Z,5.53
2023-01-29T17:04:26.138Z,5.50
2023-01-29T17:06:58.898Z,5.47
2023-01-29T17:09:31.268Z,5.43
2023-01-29T17:12:06.689Z,5.40
2023-01-29T17:14:34.445Z,5.37
2023-01-29T17:17:15.330Z,5.34
2023-01-29T17:19:42.019Z,5.32
2023-01-29T17:22:14.556Z,5.32
2023-01-29T17:24:41.971Z,5.31
2023-01-29T17:27:18.781Z,5.30
2023-01-29T17:29:45.673Z,5.27
2023-01-29T17:32:12.616Z,5.24
2023-01-29T17:34:39.368Z,5.22
2023-01-29T17:37:06.060Z,5.20
2023-01-29T17:39:32.817Z,5.17
2023-01-29T17:42:01.213Z,5.14
2023-01-29T17:44:27.955Z,5.12
2023-01-29T17:46:54.681Z,5.10
2023-01-29T17:49:29.196Z,5.07
2023-01-29T17:51:56.779Z,5.03
2023-01-29T17:54:25.465Z,4.98
2023-01-29T17:56:52.879Z,4.95
2023-01-29T17:59:22.319Z,4.91
2023-01-29T18:01:50.091Z,4.87
2023-01-29T18:04:17.385Z,4.83
2023-01-29T18:06:46.374Z,4.80
2023-01-29T18:09:18.685Z,4.75
2023-01-29T18:11:45.401Z,4.70
2023-01-29T18:14:14.279Z,4.66
2023-01-29T18:16:42.696Z,4.62
2023-01-29T18:19:19.918Z,4.58
2023-01-29T18:21:47.084Z,4.55
2023-01-29T18:24:13.838Z,4.49
2023-01-29T18:26:40.645Z,4.46
2023-01-29T18:29:07.701Z,4.43
2023-01-29T18:31:34.475Z,4.38
2023-01-29T18:34:01.225Z,4.34
2023-01-29T18:36:28.140Z,4.28
2023-01-29T18:38:55.743Z,4.20
2023-01-29T18:41:22.724Z,4.14
2023-01-29T18:43:51.526Z,4.09
2023-01-29T18:46:18.989Z,4.05
2023-01-29T18:48:45.757Z,4.02
2023-01-29T18:51:12.481Z,3.99
2023-01-29T18:53:39.375Z,3.95
2023-01-29T18:56:06.652Z,3.91
2023-01-29T18:58:35.998Z,3.88
2023-01-29T19:01:09.960Z,3.85
2023-01-29T19:03:40.622Z,3.81
2023-01-29T19:06:09.027Z,3.78
2023-01-29T19:08:35.953Z,3.75
2023-01-29T19:11:07.933Z,3.73
2023-01-29T19:13:36.063Z,3.71
2023-01-29T19:16:06.682Z,3.67
2023-01-29T19:18:33.484Z,3.60
2023-01-29T19:21:00.487Z,3.55
2023-01-29T19:23:27.467Z,3.47
2023-01-29T19:25:57.081Z,3.39
2023-01-29T19:28:23.840Z,3.36
2023-01-29T19:30:50.538Z,3.31
2023-01-29T19:33:17.304Z,3.26
2023-01-29T19:35:45.195Z,3.20
2023-01-29T19:38:11.996Z,3.15
2023-01-29T19:40:38.793Z,3.10
2023-01-29T19:43:05.768Z,3.06
2023-01-29T19:45:49.798Z,3.04
2023-01-29T19:48:21.182Z,3.01
2023-01-29T19:50:55.965Z,2.98
2023-01-29T19:53:23.244Z,2.97
2023-01-29T19:56:01.958Z,2.94
2023-01-29T19:58:29.049Z,2.93
2023-01-29T20:01:00.414Z,2.92
2023-01-29T20:03:28.113Z,2.89
2023-01-29T20:05:56.217Z,2.87
2023-01-29T20:08:23.852Z,2.85
2023-01-29T20:10:50.957Z,2.82
2023-01-29T20:13:17.914Z,2.80
2023-01-29T20:15:46.065Z,2.78
2023-01-29T20:18:13.534Z,2.74
2023-01-29T20:20:41.853Z,2.71
2023-01-29T20:23:09.613Z,2.67
2023-01-29T20:25:37.319Z,2.64
2023-01-29T20:28:05.807Z,2.62
2023-01-29T20:30:33.681Z,2.60
2023-01-29T20:33:01.177Z,2.59
2023-01-29T20:35:29.448Z,2.57
2023-01-29T20:37:56.328Z,2.54
2023-01-29T20:40:23.174Z,2.50
2023-01-29T20:42:49.906Z,2.48
2023-01-29T20:45:16.593Z,2.45
2023-01-29T20:47:43.345Z,2.41
2023-01-29T20:50:11.543Z,2.37
2023-01-29T20:52:39.850Z,2.35
2023-01-29T20:55:08.481Z,2.33
2023-01-29T20:57:36.394Z,2.34
2023-01-29T21:00:04.930Z,2.32
2023-01-29T21:02:31.751Z,2.31
2023-01-29T21:04:58.464Z,2.31
2023-01-29T21:07:25.182Z,2.30
2023-01-29T21:09:51.920Z,2.30
2023-01-29T21:12:18.674Z,2.30
2023-01-29T21:14:45.963Z,2.31
2023-01-29T21:17:12.713Z,2.31
2023-01-29T21:19:39.410Z,2.31
2023-01-29T21:22:06.208Z,2.31
2023-01-29T21:24:33.041Z,2.30
2023-01-29T21:26:59.774Z,2.30
2023-01-29T21:29:26.575Z,2.28
2023-01-29T21:31:53.314Z,2.21
2023-01-29T21:34:20.099Z,2.16
2023-01-29T21:36:46.835Z,2.10
2023-01-29T21:39:16.593Z,2.04
2023-01-29T21:42:03.008Z,2.03
2023-01-29T21:44:29.830Z,1.99
2023-01-29T21:46:56.557Z,1.98
2023-01-29T21:49:23.430Z,1.99
2023-01-29T21:51:51.322Z,2.00
2023-01-29T21:54:18.059Z,2.01
2023-01-29T21:56:44.737Z,2.03
2023-01-29T21:59:11.485Z,2.03
2023-01-29T22:01:38.876Z,2.05
2023-01-29T22:04:08.688Z,2.04
2023-01-29T22:06:35.430Z,2.04
2023-01-29T22:09:02.267Z,2.04
2023-01-29T22:11:29.052Z,2.03
2023-01-29T22:13:55.809Z,2.03
2023-01-29T22:16:23.822Z,2.03
2023-01-29T22:18:50.594Z,2.03
2023-01-29T22:21:17.320Z,2.02
2023-01-29T22:23:48.437Z,2.03
2023-01-29T22:26:15.668Z,2.01
2023-01-29T22:28:42.571Z,2.01
2023-01-29T22:31:09.700Z,2.01
2023-01-29T22:33:36.764Z,2.01
2023-01-29T22:36:03.691Z,1.99
2023-01-29T22:38:30.779Z,1.97
2023-01-29T22:41:02.490Z,1.96
2023-01-29T22:43:29.507Z,1.93
2023-01-29T22:45:56.420Z,1.90
2023-01-29T22:48:23.593Z,1.88
2023-01-29T22:51:09.857Z,1.85
2023-01-29T22:53:38.191Z,1.84
2023-01-29T22:56:06.258Z,1.81
2023-01-29T22:58:33.263Z,1.76
2023-01-29T23:00:59.989Z,1.73
2023-01-29T23:03:26.755Z,1.69
2023-01-29T23:05:53.489Z,1.66
2023-01-29T23:08:20.223Z,1.66
2023-01-29T23:10:46.973Z,1.65
2023-01-29T23:13:13.672Z,1.65
2023-01-29T23:15:40.505Z,1.63
2023-01-29T23:18:07.458Z,1.60
2023-01-29T23:20:34.471Z,1.59
2023-01-29T23:23:03.784Z,1.56
2023-01-29T23:25:48.820Z,1.57
2023-01-29T23:28:15.502Z,1.57
2023-01-29T23:30:42.263Z,1.57
2023-01-29T23:33:12.067Z,1.58
2023-01-29T23:35:39.119Z,1.60
2023-01-29T23:38:05.838Z,1.63
2023-01-29T23:40:32.618Z,1.63
2023-01-29T23:42:59.311Z,1.64
2023-01-29T23:45:26.650Z,1.64
2023-01-29T23:47:53.365Z,1.62
2023-01-29T23:50:20.298Z,1.57
2023-01-29T23:52:47.134Z,1.53
2023-01-29T23:55:13.829Z,1.48
2023-01-29T23:57:40.573Z,1.47
